Saint-Tite, Canada
Current Conditions -  °F | °C
As of 2:52 PM on Thursday 23 Oct 2014 (Local Time) from CYRQ Reporting Station
Light Rain Light Rain  
Wind Chill: 45°   Ceiling: 8500
Heat Index: 48°   Visibility: 9mi
Dew Point: 39°   Wind: 8mph
Humidity: 71%   Direction: 50°NE
Pressure: 30.04"   Gusts: NA
Location:  46.72°N, 72.57°W
Report Text: CYRQ 231852Z AUTO 05007KT 9SM -RA OVC085 09/04 A3004 RMK SLP174
Loading
Personal Weather Stations






























Interactive Weather Map
Tropical Storm Tracking
New forecast layout! Learn more

10-Day Weather Forecast

Advertisements
Track Severe Weather on mobile